createdAt,value
2017-08-31T00:00:05.178Z,1003.2
2017-08-31T00:01:06.871Z,1003.3
2017-08-31T00:02:08.500Z,1003.3
2017-08-31T00:03:10.181Z,1003.2
2017-08-31T00:04:11.847Z,1003.3
2017-08-31T00:05:13.496Z,1003.2
2017-08-31T00:06:15.154Z,1003.3
2017-08-31T00:07:16.820Z,1003.3
2017-08-31T00:08:18.469Z,1003.3
2017-08-31T00:09:20.125Z,1003.3
2017-08-31T00:10:21.810Z,1003.3
2017-08-31T00:11:23.449Z,1003.3
2017-08-31T00:12:25.091Z,1003.3
2017-08-31T00:13:26.748Z,1003.4
2017-08-31T00:14:28.402Z,1003.4
2017-08-31T00:15:30.071Z,1003.5
2017-08-31T00:16:31.764Z,1003.5
2017-08-31T00:17:33.424Z,1003.5
2017-08-31T00:18:35.083Z,1003.5
2017-08-31T00:19:36.771Z,1003.5
2017-08-31T00:20:38.433Z,1003.4
2017-08-31T00:21:40.098Z,1003.4
2017-08-31T00:22:41.751Z,1003.4
2017-08-31T00:23:43.415Z,1003.5
2017-08-31T00:24:45.099Z,1003.4
2017-08-31T00:25:46.753Z,1003.4
2017-08-31T00:26:48.416Z,1003.5
2017-08-31T00:27:50.107Z,1003.5
2017-08-31T00:28:51.793Z,1003.5
2017-08-31T00:29:53.482Z,1003.5
2017-08-31T00:30:55.156Z,1003.5
2017-08-31T00:31:56.837Z,1003.5
2017-08-31T00:32:58.518Z,1003.5
2017-08-31T00:34:00.162Z,1003.5
2017-08-31T00:35:01.821Z,1003.6
2017-08-31T00:36:03.513Z,1003.5
2017-08-31T00:37:05.167Z,1003.6
2017-08-31T00:38:06.836Z,1003.5
2017-08-31T00:39:08.495Z,1003.5
2017-08-31T00:40:10.169Z,1003.5
2017-08-31T00:41:11.838Z,1003.5
2017-08-31T00:42:13.509Z,1003.5
2017-08-31T00:43:15.178Z,1003.5
2017-08-31T00:44:16.837Z,1003.5
2017-08-31T00:45:18.505Z,1003.6
2017-08-31T00:46:20.160Z,1003.6
2017-08-31T00:47:21.816Z,1003.5
2017-08-31T00:48:23.489Z,1003.5
2017-08-31T00:49:25.152Z,1003.6
2017-08-31T00:50:26.834Z,1003.5
2017-08-31T00:51:28.498Z,1003.6
2017-08-31T00:52:30.158Z,1003.7
2017-08-31T00:53:31.818Z,1003.6
2017-08-31T00:54:33.506Z,1003.7
2017-08-31T00:55:35.194Z,1003.7
2017-08-31T00:56:36.868Z,1003.7
2017-08-31T00:57:38.551Z,1003.7
2017-08-31T00:58:40.229Z,1003.7
2017-08-31T00:59:41.902Z,1003.6
2017-08-31T01:00:43.541Z,1003.7
2017-08-31T01:01:45.232Z,1003.7
2017-08-31T01:02:46.913Z,1003.7
2017-08-31T01:03:48.587Z,1003.7
2017-08-31T01:04:50.283Z,1003.8
2017-08-31T01:05:51.938Z,1003.8
2017-08-31T01:06:53.602Z,1003.9
2017-08-31T01:07:55.261Z,1003.9
2017-08-31T01:08:56.959Z,1003.9
2017-08-31T01:09:58.621Z,1003.9
2017-08-31T01:11:00.288Z,1003.9
2017-08-31T01:12:01.970Z,1003.9
2017-08-31T01:13:03.628Z,1003.9
2017-08-31T01:14:05.290Z,1003.9
2017-08-31T01:15:06.953Z,1003.9
2017-08-31T01:16:08.607Z,1003.8
2017-08-31T01:17:10.287Z,1003.9
2017-08-31T01:18:11.960Z,1003.9
2017-08-31T01:19:13.626Z,1003.9
2017-08-31T01:20:15.297Z,1003.9
2017-08-31T01:21:16.975Z,1004.0
2017-08-31T01:22:18.625Z,1004.0
2017-08-31T01:23:20.299Z,1004.0
2017-08-31T01:24:21.963Z,1004.1
2017-08-31T01:25:23.626Z,1004.1
2017-08-31T01:26:25.294Z,1004.1
2017-08-31T01:27:26.998Z,1004.1
2017-08-31T01:28:28.695Z,1004.1
2017-08-31T01:29:30.340Z,1004.1
2017-08-31T01:30:32.229Z,1004.1
2017-08-31T01:31:33.891Z,1004.1
2017-08-31T01:32:35.552Z,1004.1
2017-08-31T01:33:37.210Z,1004.1
2017-08-31T01:34:38.862Z,1004.0
2017-08-31T01:35:40.527Z,1004.0
2017-08-31T01:36:42.165Z,1004.0
2017-08-31T01:37:43.837Z,1004.0
2017-08-31T01:38:45.523Z,1004.0
2017-08-31T01:39:47.180Z,1004.0
2017-08-31T01:40:48.836Z,1004.0
2017-08-31T01:41:50.506Z,1003.9
2017-08-31T01:42:52.167Z,1004.0
2017-08-31T01:43:53.829Z,1004.0
2017-08-31T01:44:55.486Z,1003.9
2017-08-31T01:45:57.192Z,1003.9
2017-08-31T01:46:58.859Z,1003.9
2017-08-31T01:48:00.504Z,1004.0
2017-08-31T01:49:02.174Z,1004.0
2017-08-31T01:50:03.820Z,1004.0
2017-08-31T01:51:05.465Z,1004.1
2017-08-31T01:52:07.141Z,1004.1
2017-08-31T01:53:08.803Z,1004.1
2017-08-31T01:54:10.444Z,1004.1
2017-08-31T01:55:12.110Z,1004.1
2017-08-31T01:56:13.796Z,1004.1
2017-08-31T01:57:15.433Z,1004.1
2017-08-31T01:58:17.102Z,1004.1
2017-08-31T01:59:18.742Z,1004.1
2017-08-31T02:00:20.417Z,1004.1
2017-08-31T02:01:22.067Z,1004.1
2017-08-31T02:02:23.726Z,1004.1
2017-08-31T02:03:25.399Z,1004.1
2017-08-31T02:04:27.050Z,1004.2
2017-08-31T02:05:28.723Z,1004.2
2017-08-31T02:06:30.383Z,1004.2
2017-08-31T02:07:32.060Z,1004.2
2017-08-31T02:08:33.909Z,1004.3
2017-08-31T02:09:35.581Z,1004.3
2017-08-31T02:10:37.241Z,1004.3
2017-08-31T02:11:38.909Z,1004.3
2017-08-31T02:12:40.552Z,1004.3
2017-08-31T02:13:42.238Z,1004.3
2017-08-31T02:14:43.914Z,1004.4
2017-08-31T02:15:45.563Z,1004.4
2017-08-31T02:16:47.240Z,1004.4
2017-08-31T02:17:48.891Z,1004.5
2017-08-31T02:18:50.537Z,1004.4
2017-08-31T02:19:52.182Z,1004.5
2017-08-31T02:20:53.852Z,1004.5
2017-08-31T02:21:55.546Z,1004.5
2017-08-31T02:22:57.206Z,1004.5
2017-08-31T02:23:58.859Z,1004.5
2017-08-31T02:25:00.518Z,1004.5
2017-08-31T02:26:02.160Z,1004.5
2017-08-31T02:27:03.836Z,1004.4
2017-08-31T02:28:05.488Z,1004.5
2017-08-31T02:29:07.182Z,1004.5
2017-08-31T02:30:08.842Z,1004.5
2017-08-31T02:31:10.493Z,1004.4
2017-08-31T02:32:12.175Z,1004.4
2017-08-31T02:33:13.821Z,1004.4
2017-08-31T02:34:15.485Z,1004.4
2017-08-31T02:35:17.153Z,1004.4
2017-08-31T02:36:18.808Z,1004.4
2017-08-31T02:37:20.485Z,1004.5
2017-08-31T02:38:22.115Z,1004.5
2017-08-31T02:39:23.745Z,1004.4
2017-08-31T02:40:25.375Z,1004.5
2017-08-31T02:41:27.020Z,1004.5
2017-08-31T02:42:28.656Z,1004.5
2017-08-31T02:43:30.295Z,1004.5
2017-08-31T02:44:31.933Z,1004.5
2017-08-31T02:45:33.567Z,1004.4
2017-08-31T02:46:35.201Z,1004.4
2017-08-31T02:47:36.836Z,1004.5
2017-08-31T02:48:38.470Z,1004.4
2017-08-31T02:49:40.107Z,1004.4
2017-08-31T02:50:41.741Z,1004.5
2017-08-31T02:51:43.375Z,1004.5
2017-08-31T02:52:45.011Z,1004.6
2017-08-31T02:53:46.649Z,1004.6
2017-08-31T02:54:48.284Z,1004.6
2017-08-31T02:55:49.920Z,1004.6
2017-08-31T02:56:51.549Z,1004.6
2017-08-31T02:57:53.185Z,1004.5
2017-08-31T02:58:54.817Z,1004.6
2017-08-31T02:59:56.454Z,1004.6
2017-08-31T03:00:58.089Z,1004.6
2017-08-31T03:01:59.727Z,1004.6
2017-08-31T03:03:01.360Z,1004.6
2017-08-31T03:04:02.994Z,1004.6
2017-08-31T03:05:04.627Z,1004.6
2017-08-31T03:06:06.261Z,1004.6
2017-08-31T03:07:07.895Z,1004.5
2017-08-31T03:08:09.529Z,1004.5
2017-08-31T03:09:11.168Z,1004.6
2017-08-31T03:10:12.798Z,1004.6
2017-08-31T03:11:14.434Z,1004.6
2017-08-31T03:12:16.070Z,1004.6
2017-08-31T03:13:17.700Z,1004.6
2017-08-31T03:14:19.336Z,1004.6
2017-08-31T03:15:20.971Z,1004.6
2017-08-31T03:16:22.605Z,1004.6
2017-08-31T03:17:24.240Z,1004.6
2017-08-31T03:18:25.873Z,1004.7
2017-08-31T03:19:27.509Z,1004.7
2017-08-31T03:20:29.176Z,1004.7
2017-08-31T03:21:30.777Z,1004.6
2017-08-31T03:22:32.414Z,1004.7
2017-08-31T03:23:34.043Z,1004.7
2017-08-31T03:24:35.677Z,1004.7
2017-08-31T03:25:37.310Z,1004.7
2017-08-31T03:26:38.940Z,1004.7
2017-08-31T03:27:40.573Z,1004.7
2017-08-31T03:28:42.211Z,1004.8
2017-08-31T03:29:43.845Z,1004.8
2017-08-31T03:30:45.478Z,1004.8
2017-08-31T03:31:47.112Z,1004.8
2017-08-31T03:32:48.746Z,1004.8
2017-08-31T03:33:50.378Z,1004.7
2017-08-31T03:34:52.012Z,1004.7
2017-08-31T03:35:53.650Z,1004.8
2017-08-31T03:36:55.280Z,1004.7
2017-08-31T03:37:56.938Z,1004.7
2017-08-31T03:38:58.575Z,1004.7
2017-08-31T03:40:00.204Z,1004.8
2017-08-31T03:41:01.841Z,1004.8
2017-08-31T03:42:03.475Z,1004.8
2017-08-31T03:43:05.107Z,1004.9
2017-08-31T03:44:06.740Z,1004.9
2017-08-31T03:45:08.369Z,1005.0
2017-08-31T03:46:10.004Z,1005.0
2017-08-31T03:47:11.635Z,1005.0
2017-08-31T03:48:13.268Z,1005.0
2017-08-31T03:49:14.900Z,1005.0
2017-08-31T03:50:16.533Z,1005.0
2017-08-31T03:51:18.167Z,1005.0
2017-08-31T03:52:19.805Z,1005.1
2017-08-31T03:53:21.436Z,1005.0
2017-08-31T03:54:23.072Z,1005.1
2017-08-31T03:55:24.708Z,1005.0
2017-08-31T03:56:26.338Z,1005.1
2017-08-31T03:57:27.975Z,1005.0
2017-08-31T03:58:29.610Z,1005.0
2017-08-31T03:59:31.239Z,1005.0
2017-08-31T04:00:32.874Z,1004.9
2017-08-31T04:01:34.509Z,1004.9
2017-08-31T04:02:36.145Z,1004.9
2017-08-31T04:03:37.777Z,1004.9
2017-08-31T04:04:39.409Z,1005.0
2017-08-31T04:05:41.044Z,1005.0
2017-08-31T04:06:42.676Z,1005.0
2017-08-31T04:07:44.309Z,1005.0
2017-08-31T04:08:45.945Z,1005.0
2017-08-31T04:09:47.587Z,1005.1
2017-08-31T04:10:49.222Z,1005.0
2017-08-31T04:11:50.855Z,1005.1
2017-08-31T04:12:52.484Z,1005.1
2017-08-31T04:13:54.118Z,1005.1
2017-08-31T04:14:55.754Z,1005.1
2017-08-31T04:15:57.385Z,1005.1
2017-08-31T04:16:59.021Z,1005.1
2017-08-31T04:18:00.654Z,1005.1
2017-08-31T04:19:02.283Z,1005.2
2017-08-31T04:20:03.914Z,1005.2
2017-08-31T04:21:05.544Z,1005.2
2017-08-31T04:22:07.180Z,1005.2
2017-08-31T04:23:08.818Z,1005.3
2017-08-31T04:24:10.450Z,1005.3
2017-08-31T04:25:12.082Z,1005.3
2017-08-31T04:26:13.725Z,1005.4
2017-08-31T04:27:15.352Z,1005.4
2017-08-31T04:28:16.983Z,1005.4
2017-08-31T04:29:18.620Z,1005.4
2017-08-31T04:30:20.251Z,1005.5
2017-08-31T04:31:21.882Z,1005.5
2017-08-31T04:32:23.511Z,1005.5
2017-08-31T04:33:25.144Z,1005.6
2017-08-31T04:34:26.777Z,1005.6
2017-08-31T04:35:28.405Z,1005.6
2017-08-31T04:36:30.035Z,1005.6
2017-08-31T04:37:31.669Z,1005.7
2017-08-31T04:38:33.297Z,1005.7
2017-08-31T04:39:34.931Z,1005.7
2017-08-31T04:40:36.564Z,1005.7
2017-08-31T04:41:38.199Z,1005.8
2017-08-31T04:42:39.823Z,1005.8
2017-08-31T04:43:41.452Z,1005.9
2017-08-31T04:44:43.083Z,1005.9
2017-08-31T04:45:44.713Z,1005.9
2017-08-31T04:46:46.344Z,1005.9
2017-08-31T04:47:47.981Z,1005.9
2017-08-31T04:48:49.606Z,1006.0
2017-08-31T04:49:51.240Z,1005.9
2017-08-31T04:50:52.870Z,1006.0
2017-08-31T04:51:54.499Z,1005.9
2017-08-31T04:52:56.133Z,1006.0
2017-08-31T04:53:57.764Z,1006.0
2017-08-31T04:54:59.398Z,1006.0
2017-08-31T04:56:01.026Z,1006.0
2017-08-31T04:57:02.655Z,1006.0
2017-08-31T04:58:04.291Z,1006.0
2017-08-31T04:59:05.925Z,1006.1
2017-08-31T05:00:07.556Z,1006.1
2017-08-31T05:01:09.189Z,1006.2
2017-08-31T05:02:10.821Z,1006.1
2017-08-31T05:03:12.451Z,1006.2
2017-08-31T05:04:14.104Z,1006.3
2017-08-31T05:05:15.727Z,1006.4
2017-08-31T05:06:17.358Z,1006.4
2017-08-31T05:07:18.991Z,1006.4
2017-08-31T05:08:20.624Z,1006.4
2017-08-31T05:09:22.258Z,1006.5
2017-08-31T05:10:23.891Z,1006.5
2017-08-31T05:11:25.521Z,1006.5
2017-08-31T05:12:27.153Z,1006.5
2017-08-31T05:13:28.783Z,1006.5
2017-08-31T05:14:30.419Z,1006.6
2017-08-31T05:15:32.055Z,1006.5
2017-08-31T05:16:33.687Z,1006.6
2017-08-31T05:17:35.322Z,1006.6
2017-08-31T05:18:36.955Z,1006.7
2017-08-31T05:19:38.586Z,1006.7
2017-08-31T05:20:40.225Z,1006.7
2017-08-31T05:21:41.855Z,1006.7
2017-08-31T05:22:43.490Z,1006.8
2017-08-31T05:23:45.122Z,1006.8
2017-08-31T05:24:46.753Z,1006.8
2017-08-31T05:25:48.385Z,1006.9
2017-08-31T05:26:50.017Z,1006.9
2017-08-31T05:27:51.654Z,1006.9
2017-08-31T05:28:53.289Z,1007.0
2017-08-31T05:29:54.922Z,1006.9
2017-08-31T05:30:56.557Z,1007.0
2017-08-31T05:31:58.185Z,1007.1
2017-08-31T05:32:59.825Z,1007.0
2017-08-31T05:34:01.455Z,1007.1
2017-08-31T05:35:03.089Z,1007.1
2017-08-31T05:36:04.727Z,1007.1
2017-08-31T05:37:06.361Z,1007.1
2017-08-31T05:38:07.995Z,1007.1
2017-08-31T05:39:09.629Z,1007.2
2017-08-31T05:40:11.261Z,1007.2
2017-08-31T05:41:12.892Z,1007.2
2017-08-31T05:42:14.531Z,1007.2
2017-08-31T05:43:16.165Z,1007.2
2017-08-31T05:44:17.802Z,1007.2
2017-08-31T05:45:19.437Z,1007.2
2017-08-31T05:46:21.067Z,1007.2
2017-08-31T05:47:22.702Z,1007.2
2017-08-31T05:48:24.334Z,1007.2
2017-08-31T05:49:25.970Z,1007.2
2017-08-31T05:50:27.604Z,1007.2
2017-08-31T05:51:29.250Z,1007.2
2017-08-31T05:52:30.887Z,1007.3
2017-08-31T05:53:32.520Z,1007.2
2017-08-31T05:54:34.154Z,1007.3
2017-08-31T05:55:35.789Z,1007.3
2017-08-31T05:56:37.419Z,1007.3
2017-08-31T05:57:39.059Z,1007.3
2017-08-31T05:58:40.693Z,1007.3
2017-08-31T05:59:42.329Z,1007.3
2017-08-31T06:00:43.971Z,1007.3
2017-08-31T06:01:45.603Z,1007.3
2017-08-31T06:02:47.236Z,1007.3
2017-08-31T06:03:48.870Z,1007.3
2017-08-31T06:04:50.509Z,1007.3
2017-08-31T06:05:52.146Z,1007.3
2017-08-31T06:06:53.784Z,1007.4
2017-08-31T06:07:55.417Z,1007.4
2017-08-31T06:08:57.048Z,1007.4
2017-08-31T06:09:58.686Z,1007.5
2017-08-31T06:11:00.321Z,1007.5
2017-08-31T06:12:01.955Z,1007.5
2017-08-31T06:13:03.589Z,1007.5
2017-08-31T06:14:05.223Z,1007.5
2017-08-31T06:15:06.862Z,1007.6
2017-08-31T06:16:08.495Z,1007.6
2017-08-31T06:17:10.126Z,1007.6
2017-08-31T06:18:11.758Z,1007.6
2017-08-31T06:19:13.401Z,1007.6
2017-08-31T06:20:15.032Z,1007.6
2017-08-31T06:21:16.673Z,1007.6
2017-08-31T06:22:18.305Z,1007.6
2017-08-31T06:23:19.943Z,1007.6
2017-08-31T06:24:21.576Z,1007.6
2017-08-31T06:25:23.212Z,1007.7
2017-08-31T06:26:24.848Z,1007.7
2017-08-31T06:27:26.481Z,1007.7
2017-08-31T06:28:28.116Z,1007.7
2017-08-31T06:29:29.755Z,1007.8
2017-08-31T06:30:31.392Z,1007.8
2017-08-31T06:31:33.027Z,1007.7
2017-08-31T06:32:34.659Z,1007.8
2017-08-31T06:33:36.301Z,1007.8
2017-08-31T06:34:37.936Z,1007.9
2017-08-31T06:35:39.569Z,1007.9
2017-08-31T06:36:41.200Z,1007.9
2017-08-31T06:37:42.836Z,1008.0
2017-08-31T06:38:44.473Z,1008.0
2017-08-31T06:39:46.104Z,1008.0
2017-08-31T06:40:47.745Z,1008.0
2017-08-31T06:41:49.380Z,1008.0
2017-08-31T06:42:51.020Z,1008.1
2017-08-31T06:43:52.656Z,1008.1
2017-08-31T06:44:54.288Z,1008.2
2017-08-31T06:45:55.933Z,1008.2
2017-08-31T06:46:57.566Z,1008.2
2017-08-31T06:47:59.201Z,1008.2
2017-08-31T06:49:00.837Z,1008.2
2017-08-31T06:50:02.476Z,1008.3
2017-08-31T06:51:04.111Z,1008.3
2017-08-31T06:52:05.755Z,1008.3
2017-08-31T06:53:07.389Z,1008.3
2017-08-31T06:54:09.025Z,1008.3
2017-08-31T06:55:10.659Z,1008.3
2017-08-31T06:56:12.296Z,1008.4
2017-08-31T06:57:13.929Z,1008.4
2017-08-31T06:58:15.561Z,1008.4
2017-08-31T06:59:17.194Z,1008.4
2017-08-31T07:00:18.829Z,1008.5
2017-08-31T07:01:20.464Z,1008.5
2017-08-31T07:02:22.102Z,1008.5
2017-08-31T07:03:23.735Z,1008.5
2017-08-31T07:04:25.374Z,1008.5
2017-08-31T07:05:27.008Z,1008.5
2017-08-31T07:06:28.642Z,1008.5
2017-08-31T07:07:30.280Z,1008.4
2017-08-31T07:08:31.945Z,1008.4
2017-08-31T07:09:33.584Z,1008.4
2017-08-31T07:10:35.216Z,1008.5
2017-08-31T07:11:36.852Z,1008.5
2017-08-31T07:12:38.492Z,1008.5
2017-08-31T07:13:40.147Z,1008.5
2017-08-31T07:14:41.759Z,1008.6
2017-08-31T07:15:43.390Z,1008.6
2017-08-31T07:16:45.040Z,1008.6
2017-08-31T07:17:46.679Z,1008.7
2017-08-31T07:18:48.313Z,1008.8
2017-08-31T07:19:49.946Z,1008.8
2017-08-31T07:20:51.586Z,1008.8
2017-08-31T07:21:53.217Z,1008.8
2017-08-31T07:22:54.853Z,1008.8
2017-08-31T07:23:56.490Z,1008.9
2017-08-31T07:24:58.124Z,1008.8
2017-08-31T07:25:59.760Z,1008.8
2017-08-31T07:27:01.399Z,1008.8
2017-08-31T07:28:03.035Z,1008.9
2017-08-31T07:29:04.665Z,1008.9
2017-08-31T07:30:06.296Z,1009.0
2017-08-31T07:31:07.939Z,1009.0
2017-08-31T07:32:09.569Z,1009.0
2017-08-31T07:33:11.206Z,1009.1
2017-08-31T07:34:12.836Z,1009.1
2017-08-31T07:35:14.465Z,1009.1
2017-08-31T07:36:16.097Z,1009.1
2017-08-31T07:37:17.735Z,1009.1
2017-08-31T07:38:19.376Z,1009.1
2017-08-31T07:39:21.002Z,1009.2
2017-08-31T07:40:22.639Z,1009.1
2017-08-31T07:41:24.270Z,1009.2
2017-08-31T07:42:25.906Z,1009.2
2017-08-31T07:43:27.539Z,1009.3
2017-08-31T07:44:29.176Z,1009.3
2017-08-31T07:45:30.809Z,1009.3
2017-08-31T07:46:32.447Z,1009.3
2017-08-31T07:47:34.085Z,1009.3
2017-08-31T07:48:35.716Z,1009.4
2017-08-31T07:49:37.350Z,1009.4
2017-08-31T07:50:38.986Z,1009.4
2017-08-31T07:51:40.619Z,1009.5
2017-08-31T07:52:42.257Z,1009.5
2017-08-31T07:53:43.891Z,1009.5
2017-08-31T07:54:45.526Z,1009.5
2017-08-31T07:55:47.161Z,1009.5
2017-08-31T07:56:48.791Z,1009.6
2017-08-31T07:57:50.427Z,1009.6
2017-08-31T07:58:52.066Z,1009.5
2017-08-31T07:59:53.700Z,1009.5
2017-08-31T08:00:55.339Z,1009.5
2017-08-31T08:01:56.979Z,1009.5
2017-08-31T08:02:58.609Z,1009.5
2017-08-31T08:04:00.246Z,1009.6
2017-08-31T08:05:01.882Z,1009.6
2017-08-31T08:06:03.518Z,1009.6
2017-08-31T08:07:05.155Z,1009.7
2017-08-31T08:08:06.791Z,1009.7
2017-08-31T08:09:08.431Z,1009.7
2017-08-31T08:10:10.064Z,1009.7
2017-08-31T08:11:11.698Z,1009.7
2017-08-31T08:12:13.336Z,1009.7
2017-08-31T08:13:14.972Z,1009.8
2017-08-31T08:14:16.609Z,1009.8
2017-08-31T08:15:18.241Z,1009.8
2017-08-31T08:16:19.889Z,1009.8
2017-08-31T08:17:21.521Z,1009.9
2017-08-31T08:18:23.159Z,1009.9
2017-08-31T08:19:24.791Z,1009.9
2017-08-31T08:20:26.431Z,1010.0
2017-08-31T08:21:28.065Z,1010.0
2017-08-31T08:22:29.701Z,1010.1
2017-08-31T08:23:31.340Z,1010.1
2017-08-31T08:24:32.978Z,1010.1
2017-08-31T08:25:34.615Z,1010.3
2017-08-31T08:26:36.251Z,1010.3
2017-08-31T08:27:37.887Z,1010.3
2017-08-31T08:28:39.524Z,1010.3
2017-08-31T08:29:41.162Z,1010.3
2017-08-31T08:30:42.799Z,1010.3
2017-08-31T08:31:44.436Z,1010.3
2017-08-31T08:32:46.068Z,1010.2
2017-08-31T08:33:47.708Z,1010.2
2017-08-31T08:34:49.343Z,1010.3
2017-08-31T08:35:50.975Z,1010.3
2017-08-31T08:36:52.610Z,1010.4
2017-08-31T08:37:54.250Z,1010.3
2017-08-31T08:38:55.884Z,1010.4
2017-08-31T08:39:57.521Z,1010.3
2017-08-31T08:40:59.157Z,1010.4
2017-08-31T08:42:00.794Z,1010.4
2017-08-31T08:43:02.426Z,1010.4
2017-08-31T08:44:04.062Z,1010.4
2017-08-31T08:45:05.697Z,1010.4
2017-08-31T08:46:07.331Z,1010.5
2017-08-31T08:47:08.966Z,1010.5
2017-08-31T08:48:10.602Z,1010.5
2017-08-31T08:49:12.237Z,1010.4
2017-08-31T08:50:13.871Z,1010.4
2017-08-31T08:51:15.545Z,1010.4
2017-08-31T08:52:17.147Z,1010.4
2017-08-31T08:53:18.784Z,1010.5
2017-08-31T08:54:20.423Z,1010.5
2017-08-31T08:55:22.058Z,1010.5
2017-08-31T08:56:23.697Z,1010.6
2017-08-31T08:57:25.339Z,1010.7
2017-08-31T08:58:26.970Z,1010.7
2017-08-31T08:59:28.618Z,1010.6
2017-08-31T09:00:30.257Z,1010.7
2017-08-31T09:01:31.896Z,1010.7
2017-08-31T09:02:33.528Z,1010.7
2017-08-31T09:03:35.168Z,1010.7
2017-08-31T09:04:36.803Z,1010.7
2017-08-31T09:05:38.438Z,1010.8
2017-08-31T09:06:40.079Z,1010.8
2017-08-31T09:07:41.711Z,1010.7
2017-08-31T09:08:43.345Z,1010.7
2017-08-31T09:09:44.979Z,1010.7
2017-08-31T09:10:46.610Z,1010.8
2017-08-31T09:11:48.244Z,1010.8
2017-08-31T09:12:49.882Z,1010.8
2017-08-31T09:13:51.524Z,1010.9
2017-08-31T09:14:53.161Z,1010.9
2017-08-31T09:15:54.799Z,1011.1
2017-08-31T09:16:56.434Z,1011.1
2017-08-31T09:17:58.072Z,1011.0
2017-08-31T09:18:59.708Z,1011.2
2017-08-31T09:20:01.354Z,1011.2
2017-08-31T09:21:02.988Z,1011.1
2017-08-31T09:22:04.628Z,1011.1
2017-08-31T09:23:06.257Z,1011.1
2017-08-31T09:24:07.900Z,1011.1
2017-08-31T09:25:09.534Z,1011.1
2017-08-31T09:26:11.173Z,1011.0
2017-08-31T09:27:12.822Z,1011.0
2017-08-31T09:28:14.459Z,1011.1
2017-08-31T09:29:16.095Z,1011.1
2017-08-31T09:30:17.729Z,1011.0
2017-08-31T09:31:19.370Z,1011.1
2017-08-31T09:32:21.006Z,1011.1
2017-08-31T09:33:22.643Z,1011.1
2017-08-31T09:34:24.277Z,1011.1
2017-08-31T09:35:25.917Z,1011.1
2017-08-31T09:36:27.554Z,1011.1
2017-08-31T09:37:29.190Z,1011.2
2017-08-31T09:38:30.825Z,1011.2
2017-08-31T09:39:32.466Z,1011.3
2017-08-31T09:40:34.102Z,1011.4
2017-08-31T09:41:35.740Z,1011.4
2017-08-31T09:42:37.380Z,1011.4
2017-08-31T09:43:39.014Z,1011.4
2017-08-31T09:44:40.646Z,1011.3
2017-08-31T09:45:42.287Z,1011.4
2017-08-31T09:46:43.926Z,1011.4
2017-08-31T09:47:45.565Z,1011.3
2017-08-31T09:48:47.200Z,1011.4
2017-08-31T09:49:48.837Z,1011.5
2017-08-31T09:50:50.478Z,1011.6
2017-08-31T09:51:52.112Z,1011.7
2017-08-31T09:52:53.751Z,1011.5
2017-08-31T09:53:55.392Z,1011.5
2017-08-31T09:54:57.025Z,1011.5
2017-08-31T09:55:58.663Z,1011.5
2017-08-31T09:57:00.304Z,1011.4
2017-08-31T09:58:01.941Z,1011.4
2017-08-31T09:59:03.575Z,1011.6
2017-08-31T10:00:05.216Z,1011.8
2017-08-31T10:01:06.854Z,1011.5
2017-08-31T10:02:08.491Z,1011.6
2017-08-31T10:03:10.132Z,1011.5
2017-08-31T10:04:11.767Z,1011.4
2017-08-31T10:05:13.405Z,1011.4
2017-08-31T10:06:15.041Z,1011.5
2017-08-31T10:07:16.683Z,1011.5
2017-08-31T10:08:18.314Z,1011.4
2017-08-31T10:09:19.953Z,1011.5
2017-08-31T10:10:21.594Z,1011.5
2017-08-31T10:11:23.231Z,1011.4
2017-08-31T10:12:24.865Z,1011.5
2017-08-31T10:13:26.499Z,1011.5
2017-08-31T10:14:28.135Z,1011.6
2017-08-31T10:15:29.772Z,1011.5
2017-08-31T10:16:31.412Z,1011.6
2017-08-31T10:17:33.047Z,1011.6
2017-08-31T10:18:34.683Z,1011.6
2017-08-31T10:19:36.324Z,1011.7
2017-08-31T10:20:37.957Z,1011.6
2017-08-31T10:21:39.591Z,1011.7
2017-08-31T10:22:41.229Z,1011.7
2017-08-31T10:23:42.865Z,1011.8
2017-08-31T10:24:44.504Z,1011.9
2017-08-31T10:25:46.145Z,1012.0
2017-08-31T10:26:47.781Z,1012.1
2017-08-31T10:27:49.411Z,1012.2
2017-08-31T10:28:51.049Z,1012.3
2017-08-31T10:29:52.687Z,1012.4
2017-08-31T10:30:54.324Z,1012.5
2017-08-31T10:31:55.963Z,1012.5
2017-08-31T10:32:57.602Z,1012.5
2017-08-31T10:33:59.242Z,1012.3
2017-08-31T10:35:00.876Z,1012.4
2017-08-31T10:36:02.515Z,1012.0
2017-08-31T10:37:04.152Z,1012.0
2017-08-31T10:38:05.791Z,1012.0
2017-08-31T10:39:07.429Z,1012.1
2017-08-31T10:40:09.073Z,1012.2
2017-08-31T10:41:10.714Z,1012.3
2017-08-31T10:42:12.351Z,1012.6
2017-08-31T10:43:13.987Z,1012.7
2017-08-31T10:44:15.629Z,1012.4
2017-08-31T10:45:17.267Z,1012.2
2017-08-31T10:46:18.906Z,1012.2
2017-08-31T10:47:20.555Z,1012.1
2017-08-31T10:48:22.191Z,1012.0
2017-08-31T10:49:23.831Z,1012.1
2017-08-31T10:50:25.466Z,1012.1
2017-08-31T10:51:27.106Z,1012.1
2017-08-31T10:52:28.741Z,1012.1
2017-08-31T10:53:30.383Z,1012.2
2017-08-31T10:54:32.025Z,1012.1
2017-08-31T10:55:33.662Z,1012.1
2017-08-31T10:56:35.296Z,1012.2
2017-08-31T10:57:36.933Z,1012.3
2017-08-31T10:58:38.573Z,1012.3
2017-08-31T10:59:40.210Z,1012.3
2017-08-31T11:00:41.851Z,1012.4
2017-08-31T11:01:43.499Z,1012.4
2017-08-31T11:02:45.130Z,1012.5
2017-08-31T11:03:46.765Z,1012.5
2017-08-31T11:04:48.404Z,1012.6
2017-08-31T11:05:50.044Z,1012.6
2017-08-31T11:06:51.686Z,1012.6
2017-08-31T11:07:53.323Z,1012.6
2017-08-31T11:08:54.968Z,1012.6
2017-08-31T11:09:56.605Z,1012.6
2017-08-31T11:10:58.243Z,1012.6
2017-08-31T11:11:59.881Z,1012.5
2017-08-31T11:13:01.521Z,1012.5
2017-08-31T11:14:03.159Z,1012.5
2017-08-31T11:15:04.797Z,1012.5
2017-08-31T11:16:06.436Z,1012.5
2017-08-31T11:17:08.074Z,1012.5
2017-08-31T11:18:09.713Z,1012.5
2017-08-31T11:19:11.347Z,1012.5
2017-08-31T11:20:12.989Z,1012.5
2017-08-31T11:21:14.631Z,1012.6
2017-08-31T11:22:16.272Z,1012.6
2017-08-31T11:23:17.912Z,1012.6
2017-08-31T11:24:19.549Z,1012.7
2017-08-31T11:25:21.182Z,1012.6
2017-08-31T11:26:22.822Z,1012.7
2017-08-31T11:27:24.514Z,1012.8
2017-08-31T11:28:26.111Z,1012.8
2017-08-31T11:29:27.882Z,1012.8
2017-08-31T11:30:29.383Z,1012.9
2017-08-31T11:31:31.083Z,1012.9
2017-08-31T11:32:32.710Z,1013.0
2017-08-31T11:33:34.359Z,1013.0
2017-08-31T11:34:36.069Z,1013.1
2017-08-31T11:35:37.588Z,1013.1
2017-08-31T11:36:39.343Z,1013.0
2017-08-31T11:37:40.869Z,1013.0
2017-08-31T11:38:42.508Z,1013.1
2017-08-31T11:39:44.143Z,1013.0
2017-08-31T11:40:45.781Z,1013.1
2017-08-31T11:41:47.424Z,1013.0
2017-08-31T11:42:49.068Z,1013.1
2017-08-31T11:43:50.707Z,1013.1
2017-08-31T11:44:52.352Z,1013.2
2017-08-31T11:45:53.988Z,1013.2
2017-08-31T11:46:55.626Z,1013.3
2017-08-31T11:47:57.270Z,1013.3
2017-08-31T11:48:58.907Z,1013.4
2017-08-31T11:50:00.549Z,1013.4
2017-08-31T11:51:02.193Z,1013.3
2017-08-31T11:52:03.837Z,1013.3
2017-08-31T11:53:05.475Z,1013.3
2017-08-31T11:54:07.118Z,1013.2
2017-08-31T11:55:08.748Z,1013.2
2017-08-31T11:56:10.389Z,1013.2
2017-08-31T11:57:12.035Z,1013.2
2017-08-31T11:58:13.673Z,1013.2
2017-08-31T11:59:15.311Z,1013.3
2017-08-31T12:00:16.952Z,1013.3
2017-08-31T12:01:18.590Z,1013.2
2017-08-31T12:02:20.231Z,1013.3
2017-08-31T12:03:21.871Z,1013.4
2017-08-31T12:04:23.514Z,1013.5
2017-08-31T12:05:25.156Z,1014.0
2017-08-31T12:06:26.802Z,1013.8
2017-08-31T12:07:28.442Z,1013.7
2017-08-31T12:08:30.080Z,1013.8
2017-08-31T12:09:31.723Z,1013.7
2017-08-31T12:10:33.360Z,1013.8
2017-08-31T12:11:35.007Z,1013.8
2017-08-31T12:12:36.643Z,1013.7
2017-08-31T12:13:38.286Z,1013.5
2017-08-31T12:14:39.928Z,1013.4
2017-08-31T12:15:41.568Z,1013.5
2017-08-31T12:16:43.207Z,1013.6
2017-08-31T12:17:44.846Z,1013.6
2017-08-31T12:18:46.487Z,1013.6
2017-08-31T12:19:48.127Z,1013.6
2017-08-31T12:20:49.771Z,1013.7
2017-08-31T12:21:51.412Z,1013.6
2017-08-31T12:22:53.049Z,1013.7
2017-08-31T12:23:54.690Z,1013.8
2017-08-31T12:24:56.334Z,1013.7
2017-08-31T12:25:57.975Z,1013.7
2017-08-31T12:26:59.612Z,1013.6
2017-08-31T12:28:01.259Z,1013.5
2017-08-31T12:29:02.898Z,1013.5
2017-08-31T12:30:04.543Z,1013.4
2017-08-31T12:31:06.173Z,1013.4
2017-08-31T12:32:07.811Z,1013.4
2017-08-31T12:33:09.456Z,1013.4
2017-08-31T12:34:11.098Z,1013.4
2017-08-31T12:35:12.736Z,1013.4
2017-08-31T12:36:14.379Z,1013.4
2017-08-31T12:37:16.020Z,1013.4
2017-08-31T12:38:17.659Z,1013.5
2017-08-31T12:39:19.303Z,1013.5
2017-08-31T12:40:20.939Z,1013.7
2017-08-31T12:41:22.588Z,1013.8
2017-08-31T12:42:24.232Z,1013.9
2017-08-31T12:43:25.872Z,1013.8
2017-08-31T12:44:27.510Z,1014.1
2017-08-31T12:45:29.151Z,1014.0
2017-08-31T12:46:30.800Z,1014.5
2017-08-31T12:47:32.449Z,1014.1
2017-08-31T12:48:34.089Z,1013.9